Time;durP1;ratioP1;P1;durP2;ratioP2;P2;SDS_P1;SDS_P2;PMS_P1;PMS_P2;Temp;Humidity;BMP_temperature;BMP_pressure;BME280_temperature;BME280_humidity;BME280_pressure;Samples;Min_cycle;Max_cycle;Signal;HPM_P1;HPM_P2
2022/09/22 00:01:43;;;;;;;7.28;5.10;;;16.00;84.60;;;;;;1815395;78;21059;-62
2022/09/22 00:04:13;;;;;;;6.08;4.67;;;15.90;84.50;;;;;;1815366;78;21583;-62
2022/09/22 00:06:46;;;;;;;7.12;5.10;;;15.90;84.60;;;;;;1815387;78;21059;-62
2022/09/22 00:09:17;;;;;;;6.22;4.80;;;15.90;84.80;;;;;;1815506;79;21097;-62
2022/09/22 00:11:50;;;;;;;6.35;5.22;;;16.00;84.90;;;;;;1815270;78;21137;-62
2022/09/22 00:14:25;;;;;;;7.72;4.87;;;16.00;85.30;;;;;;1815336;79;21032;-62
2022/09/22 00:17:04;;;;;;;9.95;5.10;;;16.00;84.70;;;;;;1815455;78;21047;-62
2022/09/22 00:19:32;;;;;;;7.28;5.00;;;16.00;84.80;;;;;;1814348;79;21079;-62
2022/09/22 00:22:01;;;;;;;6.45;4.58;;;16.00;84.60;;;;;;1815373;79;21051;-62
2022/09/22 00:24:31;;;;;;;7.25;4.58;;;16.00;84.60;;;;;;1815272;78;21051;-62
2022/09/22 00:27:00;;;;;;;6.20;4.60;;;16.10;85.10;;;;;;1815306;78;21149;-63
2022/09/22 00:29:30;;;;;;;7.50;5.20;;;16.10;84.80;;;;;;1815345;78;21161;-62
2022/09/22 00:32:01;;;;;;;7.67;5.58;;;16.00;83.30;;;;;;1815248;78;21084;-62
2022/09/22 00:34:30;;;;;;;8.45;5.85;;;15.80;83.20;;;;;;1815276;79;21126;-62
2022/09/22 00:37:00;;;;;;;8.50;6.00;;;15.70;82.90;;;;;;1806855;79;21216;-62
2022/09/22 00:39:30;;;;;;;7.78;5.60;;;15.50;82.90;;;;;;1804563;79;21075;-62
2022/09/22 00:42:00;;;;;;;17.35;5.08;;;15.30;83.70;;;;;;1804555;78;21114;-62
2022/09/22 00:44:38;;;;;;;5.97;4.47;;;15.20;84.70;;;;;;1804413;79;21051;-62
2022/09/22 00:47:28;;;;;;;6.65;4.65;;;15.20;85.20;;;;;;1804152;79;21067;-62
2022/09/22 00:50:12;;;;;;;7.83;4.62;;;15.30;85.40;;;;;;1804543;79;21066;-62
2022/09/22 00:53:00;;;;;;;10.68;5.15;;;15.40;85.20;;;;;;1804452;78;21098;-63
2022/09/22 00:55:35;;;;;;;7.72;4.62;;;15.50;85.00;;;;;;1804551;79;21136;-63
2022/09/22 00:58:07;;;;;;;8.75;4.20;;;15.50;85.00;;;;;;1804719;79;21510;-63
2022/09/22 01:00:37;;;;;;;5.20;4.65;;;15.60;85.10;;;;;;1804628;79;21047;-63
2022/09/22 01:03:08;;;;;;;9.50;5.25;;;15.60;85.00;;;;;;1804378;79;21118;-63
2022/09/22 01:05:39;;;;;;;6.40;4.58;;;15.70;84.80;;;;;;1804495;79;21058;-62
2022/09/22 01:08:10;;;;;;;7.60;5.17;;;15.70;85.00;;;;;;1804468;79;21081;-63
2022/09/22 01:10:39;;;;;;;7.53;5.05;;;15.70;85.10;;;;;;1804575;79;21043;-63
2022/09/22 01:13:37;;;;;;;6.45;5.17;;;15.80;85.00;;;;;;1804526;79;21044;-63
2022/09/22 01:16:33;;;;;;;7.87;4.60;;;15.80;84.90;;;;;;1803963;78;21502;-63
2022/09/22 01:19:28;;;;;;;7.65;5.00;;;15.80;84.90;;;;;;1761015;79;21061;-61
2022/09/22 01:22:02;;;;;;;6.80;4.40;;;15.90;84.90;;;;;;1801881;79;21043;-63
2022/09/22 01:24:39;;;;;;;10.23;5.53;;;15.90;84.90;;;;;;1804054;79;21137;-63
2022/09/22 01:27:26;;;;;;;9.08;5.30;;;16.00;84.60;;;;;;1803337;78;21508;-63
2022/09/22 01:30:17;;;;;;;6.15;4.87;;;16.00;84.00;;;;;;1804504;79;21047;-63
2022/09/22 01:32:58;;;;;;;8.05;5.00;;;15.90;84.00;;;;;;1804462;79;21007;-63
2022/09/22 01:35:30;;;;;;;9.38;4.85;;;15.90;84.30;;;;;;1804485;79;21019;-63
2022/09/22 01:38:11;;;;;;;9.08;4.92;;;15.90;84.40;;;;;;1814772;79;21130;-63
2022/09/22 01:40:55;;;;;;;7.15;5.17;;;16.00;84.60;;;;;;1812030;78;21067;-61
2022/09/22 01:43:36;;;;;;;11.08;5.72;;;16.00;84.60;;;;;;1815580;79;21071;-63
2022/09/22 01:46:14;;;;;;;7.17;5.45;;;16.00;84.70;;;;;;1815441;79;21051;-63
2022/09/22 01:48:45;;;;;;;9.38;5.42;;;16.10;84.50;;;;;;1814893;78;21470;-62
2022/09/22 01:51:23;;;;;;;9.10;5.83;;;16.00;84.20;;;;;;1815310;79;21486;-62
2022/09/22 01:53:55;;;;;;;9.03;6.12;;;15.90;84.10;;;;;;1815266;78;21137;-62
2022/09/22 01:56:27;;;;;;;10.72;5.42;;;15.90;84.30;;;;;;1814979;79;21501;-62
2022/09/22 01:59:02;;;;;;;8.78;4.90;;;15.90;84.60;;;;;;1815338;79;21568;-62
2022/09/22 02:01:43;;;;;;;8.20;5.20;;;16.00;85.00;;;;;;1815362;78;21498;-62
2022/09/22 02:04:21;;;;;;;12.18;5.55;;;16.00;84.90;;;;;;1815338;79;21028;-63
2022/09/22 02:06:55;;;;;;;8.20;5.40;;;16.10;84.60;;;;;;1815273;78;21534;-62
2022/09/22 02:09:28;;;;;;;8.23;5.42;;;16.10;84.90;;;;;;1815330;78;21051;-63
2022/09/22 02:11:58;;;;;;;11.28;5.08;;;16.10;84.90;;;;;;1815294;78;21051;-63
2022/09/22 02:14:28;;;;;;;7.75;5.28;;;16.10;85.00;;;;;;1815395;79;21075;-63
2022/09/22 02:16:58;;;;;;;6.97;4.62;;;16.10;85.10;;;;;;1815443;78;21056;-63
2022/09/22 02:19:33;;;;;;;10.98;5.00;;;16.10;85.10;;;;;;1815468;79;21109;-63
2022/09/22 02:22:04;;;;;;;7.67;5.28;;;16.10;85.00;;;;;;1814685;78;21514;-63
2022/09/22 02:24:37;;;;;;;10.63;5.75;;;16.10;84.80;;;;;;1815302;78;21048;-63
2022/09/22 02:27:34;;;;;;;7.95;5.67;;;16.10;84.80;;;;;;1815287;78;21133;-63
2022/09/22 02:29:59;;;;;;;7.67;5.40;;;16.10;85.00;;;;;;1814629;78;21137;-63
2022/09/22 02:32:30;;;;;;;11.28;4.85;;;16.10;85.10;;;;;;1815491;78;21067;-63
2022/09/22 02:35:00;;;;;;;8.10;4.92;;;16.10;85.00;;;;;;1815387;79;21104;-63
2022/09/22 02:37:38;;;;;;;7.12;4.78;;;16.10;84.90;;;;;;1815388;79;21095;-63
2022/09/22 02:40:19;;;;;;;9.25;5.05;;;16.10;85.00;;;;;;1815346;79;21071;-63
2022/09/22 02:42:51;;;;;;;7.42;4.62;;;16.10;85.00;;;;;;1815323;78;21031;-63
2022/09/22 02:45:29;;;;;;;6.83;4.58;;;16.10;84.90;;;;;;1814560;79;21087;-63
2022/09/22 02:48:01;;;;;;;8.00;4.45;;;16.00;84.90;;;;;;1815429;79;21129;-63
2022/09/22 02:50:31;;;;;;;7.28;4.30;;;16.00;85.10;;;;;;1815355;78;21055;-63
2022/09/22 02:53:06;;;;;;;8.93;5.42;;;16.00;84.90;;;;;;1815310;79;21218;-63
2022/09/22 02:55:36;;;;;;;20.88;6.17;;;15.90;84.40;;;;;;1814937;78;21051;-63
2022/09/22 02:58:06;;;;;;;9.20;5.03;;;15.80;84.70;;;;;;1815510;78;21064;-63
2022/09/22 03:00:36;;;;;;;9.13;4.90;;;15.70;85.30;;;;;;1815322;79;21051;-63
2022/09/22 03:03:05;;;;;;;7.92;5.03;;;15.70;85.80;;;;;;1815348;79;21072;-63
2022/09/22 03:05:34;;;;;;;8.28;5.15;;;15.80;86.00;;;;;;1815288;79;21109;-63
2022/09/22 03:08:03;;;;;;;10.43;5.15;;;15.80;86.10;;;;;;1815361;78;21480;-63
2022/09/22 03:10:33;;;;;;;6.45;4.80;;;15.90;86.20;;;;;;1815315;79;21057;-63
2022/09/22 03:13:02;;;;;;;8.03;5.62;;;15.90;86.30;;;;;;1815264;79;21098;-63
2022/09/22 03:15:31;;;;;;;9.00;4.97;;;16.00;86.50;;;;;;1815309;78;21074;-63
2022/09/22 03:18:01;;;;;;;8.35;4.75;;;16.00;85.60;;;;;;1815397;78;21362;-63
2022/09/22 03:20:31;;;;;;;8.88;5.12;;;16.00;85.70;;;;;;1815372;79;21154;-63
2022/09/22 03:23:00;;;;;;;11.30;5.33;;;16.00;85.30;;;;;;1815334;78;21056;-63
2022/09/22 03:25:30;;;;;;;9.58;5.40;;;15.90;84.40;;;;;;1815361;79;21102;-63
2022/09/22 03:27:59;;;;;;;8.18;4.80;;;15.80;85.00;;;;;;1815360;79;21101;-62
2022/09/22 03:30:28;;;;;;;9.45;4.87;;;15.80;85.70;;;;;;1815341;78;21031;-62
2022/09/22 03:32:58;;;;;;;6.67;4.72;;;15.70;85.80;;;;;;1815363;78;21165;-62
2022/09/22 03:35:27;;;;;;;10.08;4.85;;;15.80;86.00;;;;;;1815348;79;21055;-62
2022/09/22 03:37:57;;;;;;;10.63;5.12;;;15.80;86.10;;;;;;1810661;79;21145;-62
2022/09/22 03:40:26;;;;;;;6.75;5.03;;;15.90;86.20;;;;;;1804592;79;21140;-62
2022/09/22 03:42:56;;;;;;;9.33;5.50;;;16.00;86.00;;;;;;1804477;79;21055;-62
2022/09/22 03:45:26;;;;;;;9.58;5.22;;;16.00;86.00;;;;;;1804552;78;21116;-62
2022/09/22 03:47:57;;;;;;;9.85;5.28;;;16.10;86.20;;;;;;1804588;79;21055;-62
2022/09/22 03:50:27;;;;;;;10.93;5.37;;;16.10;86.10;;;;;;1804620;79;21074;-62
2022/09/22 03:52:57;;;;;;;11.25;5.67;;;16.10;86.60;;;;;;1804609;79;21125;-62
2022/09/22 03:55:27;;;;;;;7.08;4.58;;;16.20;86.10;;;;;;1804612;79;21036;-62
2022/09/22 03:57:56;;;;;;;9.80;5.53;;;16.20;86.20;;;;;;1804419;79;21118;-62
2022/09/22 04:00:27;;;;;;;8.35;5.47;;;16.20;86.40;;;;;;1804607;79;21125;-62
2022/09/22 04:02:57;;;;;;;8.13;5.40;;;16.20;86.30;;;;;;1804430;79;21043;-62
2022/09/22 04:05:27;;;;;;;10.13;4.85;;;16.30;86.20;;;;;;1804649;78;21039;-62
2022/09/22 04:07:56;;;;;;;7.25;5.42;;;16.20;86.30;;;;;;1804454;79;21100;-62
2022/09/22 04:10:25;;;;;;;17.87;6.47;;;16.20;86.50;;;;;;1804519;79;21047;-62
2022/09/22 04:12:55;;;;;;;10.13;5.80;;;16.30;86.50;;;;;;1804443;79;21047;-62
2022/09/22 04:15:24;;;;;;;10.20;6.22;;;16.30;86.40;;;;;;1804566;79;21055;-63
2022/09/22 04:17:54;;;;;;;8.58;5.72;;;16.30;86.30;;;;;;1804536;78;21206;-62
2022/09/22 04:20:23;;;;;;;11.03;7.30;;;16.30;86.10;;;;;;1804446;79;21034;-62
2022/09/22 04:22:53;;;;;;;11.85;6.22;;;16.40;86.00;;;;;;1804501;79;21513;-63
2022/09/22 04:25:22;;;;;;;8.98;5.75;;;16.40;86.00;;;;;;1804610;78;21117;-63
2022/09/22 04:27:56;;;;;;;8.63;5.22;;;16.40;86.00;;;;;;1804592;78;21157;-62
2022/09/22 04:30:22;;;;;;;14.05;6.80;;;16.50;86.10;;;;;;1803505;79;21047;-62
2022/09/22 04:32:52;;;;;;;12.37;5.42;;;16.50;85.70;;;;;;1804493;78;21155;-62
2022/09/22 04:35:21;;;;;;;9.30;5.00;;;16.50;85.60;;;;;;1804771;78;21128;-63
2022/09/22 04:37:51;;;;;;;9.98;6.00;;;16.50;85.60;;;;;;1804773;79;21051;-62
2022/09/22 04:40:21;;;;;;;12.10;6.47;;;16.50;85.40;;;;;;1807106;79;21108;-62
2022/09/22 04:42:50;;;;;;;10.63;6.20;;;16.50;85.10;;;;;;1806930;79;21055;-63
2022/09/22 04:45:20;;;;;;;12.90;6.22;;;16.50;85.50;;;;;;1807056;78;21055;-63
2022/09/22 04:47:50;;;;;;;9.70;6.05;;;16.40;84.50;;;;;;1806928;78;21113;-63
2022/09/22 04:50:22;;;;;;;10.15;5.92;;;16.30;84.30;;;;;;1807204;78;21161;-63
2022/09/22 04:52:53;;;;;;;10.05;5.80;;;16.20;84.60;;;;;;1807050;78;21108;-63
2022/09/22 04:55:24;;;;;;;9.48;5.05;;;16.20;85.20;;;;;;1807212;78;21614;-63
2022/09/22 04:57:57;;;;;;;9.33;5.17;;;16.20;85.50;;;;;;1807071;79;21050;-63
2022/09/22 05:00:28;;;;;;;11.63;5.97;;;16.30;85.40;;;;;;1807146;78;21046;-63
2022/09/22 05:03:00;;;;;;;29.40;9.63;;;16.30;84.90;;;;;;1807122;79;21066;-63
2022/09/22 05:05:29;;;;;;;22.02;6.78;;;16.40;84.40;;;;;;1807071;79;21128;-63
2022/09/22 05:07:59;;;;;;;11.33;5.08;;;16.40;84.60;;;;;;1807044;78;21042;-64
2022/09/22 05:10:31;;;;;;;11.80;6.28;;;16.40;84.70;;;;;;1807147;79;21046;-64
2022/09/22 05:12:59;;;;;;;7.45;5.08;;;16.40;84.90;;;;;;1807086;78;21051;-64
2022/09/22 05:15:31;;;;;;;8.18;5.47;;;16.50;83.90;;;;;;1807029;79;21114;-64
2022/09/22 05:17:59;;;;;;;6.92;4.67;;;16.40;83.60;;;;;;1807148;79;21055;-64
2022/09/22 05:20:28;;;;;;;7.28;4.70;;;16.40;83.70;;;;;;1807143;79;21051;-64
2022/09/22 05:22:58;;;;;;;9.95;4.83;;;16.40;84.00;;;;;;1806997;79;21055;-64
2022/09/22 05:25:27;;;;;;;10.68;3.92;;;16.50;83.90;;;;;;1806938;79;21126;-64
2022/09/22 05:27:57;;;;;;;5.33;4.12;;;16.60;83.10;;;;;;1807104;79;21071;-64
2022/09/22 05:30:27;;;;;;;6.15;4.10;;;16.60;82.70;;;;;;1807144;78;21051;-64
2022/09/22 05:32:57;;;;;;;8.38;4.85;;;16.70;82.60;;;;;;1807131;79;21031;-64
2022/09/22 05:35:26;;;;;;;9.03;5.10;;;16.80;83.00;;;;;;1807141;79;21113;-64
2022/09/22 05:37:56;;;;;;;7.15;4.03;;;16.90;83.00;;;;;;1807091;79;21070;-64
2022/09/22 05:40:25;;;;;;;7.37;3.72;;;17.00;82.60;;;;;;1814771;79;21169;-64
2022/09/22 05:42:55;;;;;;;5.45;3.98;;;17.10;82.50;;;;;;1815393;78;21090;-64
2022/09/22 05:45:24;;;;;;;5.00;3.30;;;17.20;81.30;;;;;;1815414;78;21141;-63
2022/09/22 05:47:54;;;;;;;5.17;3.35;;;17.20;79.60;;;;;;1815353;79;21156;-64
2022/09/22 05:50:23;;;;;;;6.17;3.35;;;17.30;79.90;;;;;;1815339;79;21118;-64
2022/09/22 05:52:55;;;;;;;7.97;4.45;;;17.30;80.00;;;;;;1815259;79;21158;-64
2022/09/22 05:55:24;;;;;;;7.42;4.00;;;17.40;80.00;;;;;;1814719;78;21450;-64
2022/09/22 05:57:58;;;;;;;5.87;3.87;;;17.50;80.00;;;;;;1815330;78;21051;-64
2022/09/22 06:00:29;;;;;;;8.38;5.12;;;17.50;78.50;;;;;;1815496;79;21060;-64
2022/09/22 06:02:58;;;;;;;12.78;7.45;;;17.50;78.50;;;;;;1815225;78;21051;-64
2022/09/22 06:05:28;;;;;;;10.48;5.90;;;17.60;78.40;;;;;;1815278;79;21047;-64
2022/09/22 06:08:02;;;;;;;10.05;5.75;;;17.60;78.50;;;;;;1815267;78;21027;-64
2022/09/22 06:10:35;;;;;;;11.18;6.30;;;17.70;78.40;;;;;;1815254;78;21028;-64
2022/09/22 06:13:05;;;;;;;23.38;11.83;;;17.70;77.40;;;;;;1815337;79;21098;-64
2022/09/22 06:15:36;;;;;;;19.45;9.70;;;17.70;77.00;;;;;;1815281;78;21055;-65
2022/09/22 06:18:08;;;;;;;17.25;10.48;;;17.60;77.80;;;;;;1815403;79;21055;-64
2022/09/22 06:20:37;;;;;;;16.37;9.75;;;17.60;78.30;;;;;;1815301;79;21052;-64
2022/09/22 06:23:07;;;;;;;19.73;10.65;;;17.70;78.60;;;;;;1815258;78;21142;-64
2022/09/22 06:25:37;;;;;;;13.65;9.18;;;17.70;78.20;;;;;;1815191;79;21157;-64
2022/09/22 06:28:08;;;;;;;17.50;7.47;;;17.70;77.60;;;;;;1815338;78;21044;-64
2022/09/22 06:30:39;;;;;;;13.45;8.15;;;17.80;77.70;;;;;;1815319;79;21055;-64
2022/09/22 06:33:09;;;;;;;11.65;7.10;;;17.80;78.10;;;;;;1815302;78;21069;-65
2022/09/22 06:35:44;;;;;;;27.82;10.45;;;17.80;78.20;;;;;;1815281;78;21126;-64
2022/09/22 06:38:14;;;;;;;14.43;7.67;;;17.90;77.00;;;;;;1815482;78;21115;-65
2022/09/22 06:40:44;;;;;;;9.90;6.17;;;17.90;75.90;;;;;;1815190;78;21145;-64
2022/09/22 06:43:24;;;;;;;10.63;7.53;;;17.90;76.70;;;;;;1815250;79;21113;-64
2022/09/22 06:45:55;;;;;;;12.18;7.22;;;17.90;76.40;;;;;;1815216;78;21122;-64
2022/09/22 06:48:25;;;;;;;7.85;4.78;;;17.80;76.70;;;;;;1815110;79;21489;-65
2022/09/22 06:50:55;;;;;;;6.75;4.78;;;17.90;76.30;;;;;;1815156;78;21059;-64
2022/09/22 06:53:24;;;;;;;9.20;6.08;;;17.90;76.40;;;;;;1815090;79;21052;-64
2022/09/22 06:55:53;;;;;;;13.70;7.72;;;17.90;76.50;;;;;;1815161;78;21122;-64
2022/09/22 06:58:24;;;;;;;8.75;5.58;;;17.90;76.20;;;;;;1815346;78;21609;-65
2022/09/22 07:00:53;;;;;;;12.73;7.10;;;17.90;76.50;;;;;;1815315;79;21130;-65
2022/09/22 07:03:25;;;;;;;9.10;5.33;;;17.90;76.10;;;;;;1815262;78;21595;-64
2022/09/22 07:06:02;;;;;;;7.28;4.87;;;17.90;75.50;;;;;;1815280;79;21133;-65
2022/09/22 07:08:33;;;;;;;10.55;5.05;;;17.90;74.90;;;;;;1815328;79;21048;-65
2022/09/22 07:11:06;;;;;;;11.15;4.97;;;17.90;75.40;;;;;;1815277;78;21211;-65
2022/09/22 07:13:38;;;;;;;7.15;4.55;;;18.00;75.40;;;;;;1815386;79;21462;-65
2022/09/22 07:16:11;;;;;;;6.60;4.58;;;18.00;75.30;;;;;;1815377;78;21052;-65
2022/09/22 07:18:41;;;;;;;8.93;4.75;;;18.10;74.90;;;;;;1815303;78;21032;-65
2022/09/22 07:21:22;;;;;;;4.42;3.30;;;18.10;74.30;;;;;;1815166;78;21067;-65
2022/09/22 07:23:54;;;;;;;7.05;4.28;;;18.20;73.80;;;;;;1815261;78;21052;-64
2022/09/22 07:26:27;;;;;;;4.40;3.33;;;18.20;73.20;;;;;;1815205;78;21544;-65
2022/09/22 07:28:59;;;;;;;6.95;3.27;;;18.20;73.20;;;;;;1815243;78;21055;-65
2022/09/22 07:31:30;;;;;;;6.87;3.40;;;18.20;73.10;;;;;;1815087;79;21113;-65
2022/09/22 07:33:59;;;;;;;4.62;3.60;;;18.10;72.80;;;;;;1814341;78;21157;-62
2022/09/22 07:36:30;;;;;;;9.25;4.05;;;18.20;75.00;;;;;;1814460;78;21072;-65
2022/09/22 07:39:10;;;;;;;7.12;3.42;;;18.30;76.10;;;;;;1814595;78;21095;-74
2022/09/22 07:41:41;;;;;;;7.30;4.17;;;18.40;76.50;;;;;;1811600;79;21267;-65
2022/09/22 07:46:57;;;;;;;5.92;4.00;;;18.50;75.50;;;;;;1789042;80;21061;-68
2022/09/22 07:49:27;;;;;;;8.25;4.42;;;18.70;76.20;;;;;;1788679;80;21057;-70
2022/09/22 07:51:56;;;;;;;8.28;4.33;;;18.70;74.80;;;;;;1812183;77;21042;-67
2022/09/22 07:54:27;;;;;;;6.30;4.37;;;18.70;74.40;;;;;;1852819;77;21100;-69
2022/09/22 07:57:04;;;;;;;4.80;3.70;;;18.80;74.80;;;;;;1852720;77;21120;-69
2022/09/22 07:59:31;;;;;;;5.95;4.40;;;18.80;74.90;;;;;;1852377;77;21034;-71
2022/09/22 08:02:01;;;;;;;6.83;3.72;;;18.80;75.00;;;;;;1852925;77;21038;-66
2022/09/22 08:04:31;;;;;;;6.15;3.70;;;18.90;74.70;;;;;;1852602;77;21116;-70
2022/09/22 08:07:00;;;;;;;5.55;3.65;;;18.90;73.70;;;;;;1852754;77;21068;-69
2022/09/22 08:09:32;;;;;;;6.50;3.58;;;19.00;73.80;;;;;;1852774;77;21107;-70
2022/09/22 08:12:06;;;;;;;4.22;3.37;;;19.00;74.30;;;;;;1898309;75;21120;-72
2022/09/22 08:14:36;;;;;;;5.33;3.17;;;19.00;73.80;;;;;;1890921;75;21081;-63
2022/09/22 08:17:05;;;;;;;9.55;4.15;;;19.00;73.40;;;;;;1907651;74;21061;-65
2022/09/22 08:19:35;;;;;;;6.35;4.67;;;19.00;72.80;;;;;;1902033;75;21068;-65
2022/09/22 08:24:33;;;;;;;8.35;4.22;;;19.00;72.50;;;;;;1952659;73;27940;-59
2022/09/22 08:27:03;;;;;;;10.90;4.00;;;19.10;73.30;;;;;;1915394;75;21024;-60
2022/09/22 08:29:32;;;;;;;8.70;5.10;;;19.10;73.60;;;;;;1925209;73;21087;-61
2022/09/22 08:32:02;;;;;;;11.53;5.67;;;19.10;73.20;;;;;;1915032;74;21020;-60
2022/09/22 08:34:32;;;;;;;9.90;6.28;;;19.10;72.90;;;;;;1919998;73;21087;-59
2022/09/22 08:37:02;;;;;;;14.10;7.50;;;19.10;72.80;;;;;;1916664;73;21011;-59
2022/09/22 08:39:44;;;;;;;8.35;4.62;;;19.10;72.70;;;;;;1928695;73;21120;-58
2022/09/22 08:42:19;;;;;;;8.93;5.00;;;19.10;72.00;;;;;;1915557;75;21590;-58
2022/09/22 08:45:02;;;;;;;17.70;12.37;;;19.10;71.80;;;;;;1917683;75;21023;-57
2022/09/22 08:53:40;;;;;;;40.50;25.23;;;19.20;71.60;;;;;;1863816;77;21102;-63
2022/09/22 08:56:22;;;;;;;65.65;40.30;;;19.10;71.30;;;;;;1863832;77;21063;-62
2022/09/22 08:59:18;;;;;;;46.15;27.30;;;19.00;69.90;;;;;;1862155;77;21164;-62
2022/09/22 09:02:01;;;;;;;26.60;17.70;;;19.00;69.30;;;;;;1863835;77;21054;-63
2022/09/22 09:05:04;;;;;;;26.07;14.83;;;18.90;70.80;;;;;;1865069;77;21510;-65
2022/09/22 09:07:45;;;;;;;21.02;12.28;;;19.00;70.50;;;;;;1865122;77;21064;-65
2022/09/22 09:10:27;;;;;;;20.40;13.88;;;18.90;70.40;;;;;;1865257;77;21098;-62
2022/09/22 09:12:59;;;;;;;19.73;10.43;;;19.00;70.60;;;;;;1865243;77;21129;-62
2022/09/22 09:16:06;;;;;;;16.17;10.65;;;19.00;69.80;;;;;;1865045;77;21090;-66
2022/09/22 09:18:38;;;;;;;17.60;11.15;;;19.00;69.80;;;;;;1863973;77;21118;-63
2022/09/22 09:21:09;;;;;;;20.75;10.88;;;18.90;70.50;;;;;;1865088;77;21485;-64
2022/09/22 09:23:47;;;;;;;19.67;12.25;;;19.00;71.20;;;;;;1863714;77;21654;-62
2022/09/22 09:26:17;;;;;;;25.37;14.98;;;19.00;70.30;;;;;;1927393;74;21022;-62
2022/09/22 09:28:52;;;;;;;23.67;12.28;;;18.90;70.90;;;;;;1880997;76;21087;-61
2022/09/22 09:31:45;;;;;;;19.87;12.33;;;19.00;71.30;;;;;;1927585;74;21507;-65
2022/09/22 09:34:16;;;;;;;20.75;12.10;;;19.00;71.20;;;;;;1927261;74;21143;-62
2022/09/22 09:36:48;;;;;;;19.75;10.70;;;19.00;71.70;;;;;;1879900;76;21069;-61
2022/09/22 09:39:23;;;;;;;17.82;10.98;;;19.00;71.80;;;;;;1926949;74;21054;-59
2022/09/22 09:41:54;;;;;;;15.28;11.33;;;19.00;72.00;;;;;;1880550;76;21480;-58
2022/09/22 09:44:37;;;;;;;18.67;11.50;;;19.10;71.80;;;;;;1926768;74;21077;-58
2022/09/22 09:47:11;;;;;;;17.45;11.80;;;19.10;71.90;;;;;;1880154;76;21053;-59
2022/09/22 09:49:40;;;;;;;16.52;9.90;;;19.10;71.60;;;;;;1926802;74;21437;-63
2022/09/22 09:52:12;;;;;;;12.20;6.97;;;19.10;71.80;;;;;;1847041;78;21092;-63
2022/09/22 09:54:43;;;;;;;10.90;7.75;;;19.00;71.70;;;;;;1926792;74;21089;-61
2022/09/22 09:57:17;;;;;;;11.88;7.15;;;19.00;72.00;;;;;;1847218;78;21030;-66
2022/09/22 10:02:52;;;;;;;12.47;6.45;;;19.10;71.40;;;;;;1926703;74;20128;-63
2022/09/22 10:05:25;;;;;;;12.25;6.20;;;19.00;71.50;;;;;;1926744;74;21092;-61
2022/09/22 10:07:58;;;;;;;7.25;4.85;;;19.00;71.70;;;;;;1847358;78;21476;-60
2022/09/22 10:10:33;;;;;;;8.70;6.22;;;19.00;71.80;;;;;;1926800;74;21183;-61
2022/09/22 10:13:05;;;;;;;;;;;19.00;71.90;;;;;;1929281;74;21437;-62
2022/09/22 10:15:39;;;;;;;8.48;5.83;;;19.00;71.90;;;;;;1926724;73;20135;-64
2022/09/22 10:18:27;;;;;;;6.75;5.22;;;19.10;71.80;;;;;;1927015;74;21090;-65
2022/09/22 10:21:18;;;;;;;8.25;5.45;;;19.10;71.60;;;;;;1920453;74;21003;-65
2022/09/22 10:23:50;;;;;;;11.48;5.58;;;19.10;71.80;;;;;;1926548;74;21125;-63
2022/09/22 10:26:29;;;;;;;10.35;5.72;;;19.00;71.80;;;;;;1930450;74;21062;-64
2022/09/22 10:29:21;;;;;;;6.80;4.47;;;19.00;71.70;;;;;;1930553;74;21159;-62
2022/09/22 10:32:14;;;;;;;10.13;5.47;;;19.10;72.10;;;;;;1928853;74;21072;-60
2022/09/22 10:34:45;;;;;;;7.60;4.83;;;19.00;71.70;;;;;;1924035;74;21046;-61
2022/09/22 10:37:17;;;;;;;9.00;5.62;;;19.00;71.60;;;;;;1924018;74;21054;-62
2022/09/22 10:39:49;;;;;;;11.43;6.00;;;19.00;71.70;;;;;;1923908;74;21068;-63
2022/09/22 10:42:40;;;;;;;7.85;5.08;;;19.00;72.20;;;;;;1916982;74;21027;-67
2022/09/22 10:45:18;;;;;;;9.23;5.35;;;19.10;72.20;;;;;;1923965;74;21015;-66
2022/09/22 10:48:09;;;;;;;9.30;6.15;;;19.10;72.30;;;;;;1923851;74;21074;-64
2022/09/22 10:50:55;;;;;;;12.13;6.90;;;19.10;72.60;;;;;;1889149;74;21092;-65
2022/09/22 10:53:36;;;;;;;10.45;5.92;;;19.00;72.50;;;;;;1923755;74;21586;-64
2022/09/22 10:56:14;;;;;;;10.88;5.42;;;19.00;72.60;;;;;;1924047;74;21058;-63
2022/09/22 10:59:07;;;;;;;15.00;4.95;;;19.00;73.00;;;;;;1923808;74;21074;-62
2022/09/22 11:02:00;;;;;;;8.88;4.25;;;18.90;72.80;;;;;;1923817;74;21152;-59
2022/09/22 11:04:41;;;;;;;8.40;4.35;;;18.80;72.40;;;;;;1923829;74;21030;-60
2022/09/22 11:13:06;;;;;;;9.38;3.92;;;18.50;72.20;;;;;;1890067;74;21078;-62
2022/09/22 11:15:54;;;;;;;5.47;4.15;;;18.40;71.10;;;;;;1922600;74;21144;-60
2022/09/22 11:18:26;;;;;;;6.70;4.67;;;18.30;70.80;;;;;;1923906;74;21035;-62
2022/09/22 11:21:01;;;;;;;13.60;3.47;;;18.20;70.60;;;;;;1922965;74;21085;-62
2022/09/22 11:23:49;;;;;;;5.37;3.15;;;18.10;70.00;;;;;;1923601;74;21078;-62
2022/09/22 11:26:48;;;;;;;6.05;4.42;;;18.10;69.80;;;;;;1926076;73;21018;-62
2022/09/22 11:29:51;;;;;;;4.22;2.70;;;18.00;70.50;;;;;;1925392;73;21071;-63
2022/09/22 11:32:27;;;;;;;8.45;3.70;;;18.00;69.70;;;;;;1926240;74;21038;-61
2022/09/22 11:35:23;;;;;;;6.47;3.52;;;18.10;70.30;;;;;;1925609;74;21022;-61
2022/09/22 11:38:08;;;;;;;5.55;3.00;;;18.10;70.50;;;;;;1926121;74;21060;-63
2022/09/22 11:40:59;;;;;;;5.80;3.45;;;18.10;69.80;;;;;;1926338;74;21093;-60
2022/09/22 11:43:43;;;;;;;4.85;3.02;;;18.10;69.80;;;;;;1882305;74;21014;-63
2022/09/22 11:46:35;;;;;;;5.53;3.77;;;18.20;68.90;;;;;;1926096;74;21170;-64
2022/09/22 11:49:29;;;;;;;5.80;2.52;;;18.10;68.60;;;;;;1926303;74;21039;-62
2022/09/22 11:52:10;;;;;;;5.65;2.87;;;18.20;68.10;;;;;;1925276;74;21046;-63
2022/09/22 11:54:45;;;;;;;4.92;2.58;;;18.20;67.30;;;;;;1924925;74;21469;-60
2022/09/22 11:57:18;;;;;;;5.25;3.50;;;18.20;67.10;;;;;;1926251;74;21324;-63
2022/09/22 11:59:56;;;;;;;4.40;2.50;;;18.20;67.10;;;;;;1925403;74;21530;-60
2022/09/22 12:02:30;;;;;;;5.12;3.05;;;18.20;66.30;;;;;;1925233;74;21676;-60
2022/09/22 12:05:08;;;;;;;8.43;2.90;;;18.10;66.70;;;;;;1926277;73;21465;-63
2022/09/22 12:07:43;;;;;;;3.37;2.80;;;18.10;67.10;;;;;;1926202;74;21464;-61
2022/09/22 12:10:22;;;;;;;3.62;3.08;;;18.20;66.60;;;;;;1919011;74;21101;-63
2022/09/22 12:12:52;;;;;;;4.42;2.60;;;18.10;66.40;;;;;;1925306;73;21077;-60
2022/09/22 12:15:58;;;;;;;7.08;3.47;;;18.20;66.30;;;;;;1926041;74;21058;-60
2022/09/22 12:18:58;;;;;;;8.93;3.92;;;18.20;67.00;;;;;;1926229;74;21171;-61
2022/09/22 12:21:54;;;;;;;4.92;2.83;;;18.20;67.40;;;;;;1926143;74;21485;-60
2022/09/22 12:24:23;;;;;;;6.75;4.12;;;18.30;67.70;;;;;;1852511;76;21504;-64
2022/09/22 12:26:53;;;;;;;8.38;4.78;;;18.30;67.80;;;;;;1842950;76;21034;-63
2022/09/22 12:29:29;;;;;;;5.80;3.17;;;18.40;67.70;;;;;;1859532;75;21106;-62
2022/09/22 12:31:59;;;;;;;5.75;3.42;;;18.40;67.20;;;;;;1881627;76;21018;-60
2022/09/22 12:34:34;;;;;;;3.80;3.20;;;18.40;67.60;;;;;;1881603;76;21061;-61
2022/09/22 12:37:10;;;;;;;;;;;18.40;67.30;;;;;;1884233;76;21014;-57
2022/09/22 12:39:42;;;;;;;;;;;18.40;65.80;;;;;;1883913;75;20095;-60
2022/09/22 12:42:35;;;;;;;5.28;2.85;;;18.30;66.10;;;;;;1881595;76;20142;-60
2022/09/22 12:45:10;;;;;;;6.70;4.37;;;18.30;66.60;;;;;;1857327;76;21043;-61
2022/09/22 12:47:41;;;;;;;5.00;3.70;;;18.30;66.70;;;;;;1856032;77;21113;-61
2022/09/22 12:50:34;;;;;;;8.68;4.50;;;18.20;66.50;;;;;;1868348;76;21787;-62
2022/09/22 12:53:06;;;;;;;8.13;4.67;;;18.20;67.70;;;;;;1881399;76;21075;-60
2022/09/22 12:55:39;;;;;;;11.45;5.00;;;18.10;66.70;;;;;;1881374;76;21081;-64
2022/09/22 12:58:32;;;;;;;7.15;4.25;;;18.10;66.50;;;;;;1881721;75;21073;-60
2022/09/22 13:01:32;;;;;;;7.47;4.25;;;18.10;66.70;;;;;;1881913;76;21057;-58
2022/09/22 13:04:16;;;;;;;8.10;4.83;;;18.10;66.70;;;;;;1882130;76;21084;-58
2022/09/22 13:06:47;;;;;;;6.62;4.17;;;18.10;67.10;;;;;;1882310;76;21033;-58
2022/09/22 13:09:24;;;;;;;6.78;4.10;;;18.20;67.30;;;;;;1882303;76;21037;-58
2022/09/22 13:12:15;;;;;;;9.80;3.95;;;18.20;67.40;;;;;;1882310;76;21037;-58
2022/09/22 13:15:10;;;;;;;7.22;4.35;;;18.30;67.50;;;;;;1882405;76;21158;-59
2022/09/22 13:17:49;;;;;;;7.58;4.80;;;18.30;67.60;;;;;;1882430;76;21009;-59
2022/09/22 13:20:25;;;;;;;7.17;4.97;;;18.30;67.50;;;;;;1882316;76;21091;-59
2022/09/22 13:22:56;;;;;;;9.95;5.05;;;18.40;67.80;;;;;;1882224;76;21049;-59
2022/09/22 13:25:27;;;;;;;7.78;5.12;;;18.40;68.20;;;;;;1889189;74;21094;-59
2022/09/22 13:28:06;;;;;;;10.25;5.65;;;18.50;68.40;;;;;;1905285;75;21101;-58
2022/09/22 13:30:36;;;;;;;11.93;6.33;;;18.50;68.30;;;;;;1902601;74;21082;-58
2022/09/22 13:33:07;;;;;;;9.90;4.70;;;18.40;68.30;;;;;;1905249;75;21075;-57
2022/09/22 13:35:38;;;;;;;7.90;4.33;;;18.40;68.20;;;;;;1904470;74;21539;-58
2022/09/22 13:38:10;;;;;;;7.15;4.83;;;18.40;68.10;;;;;;1905257;74;21419;-57
2022/09/22 13:40:42;;;;;;;7.30;4.70;;;18.30;68.30;;;;;;1905202;74;21011;-58
2022/09/22 13:43:11;;;;;;;6.50;4.12;;;18.20;68.60;;;;;;1905262;74;21023;-58